sensor_id;sensor_type;location;lat;lon;timestamp;pressure;altitude;pressure_sealevel;temperature;humidity
9189;BME280;34313;50.780;6.084;2023-02-11T00:01:57;101404.63;;;6.00;87.33
9189;BME280;34313;50.780;6.084;2023-02-11T00:04:25;101407.31;;;5.85;88.42
9189;BME280;34313;50.780;6.084;2023-02-11T00:06:50;101411.72;;;5.81;88.99
9189;BME280;34313;50.780;6.084;2023-02-11T00:09:15;101397.78;;;5.79;89.15
9189;BME280;34313;50.780;6.084;2023-02-11T00:11:41;101402.25;;;5.63;90.37
9189;BME280;34313;50.780;6.084;2023-02-11T00:14:07;101386.66;;;5.54;90.64
9189;BME280;34313;50.780;6.084;2023-02-11T00:16:32;101378.75;;;5.56;90.89
9189;BME280;34313;50.780;6.084;2023-02-11T00:18:59;101384.03;;;5.54;90.95
9189;BME280;34313;50.780;6.084;2023-02-11T00:21:26;101386.66;;;5.54;91.70
9189;BME280;34313;50.780;6.084;2023-02-11T00:23:52;101391.06;;;5.43;92.36
9189;BME280;34313;50.780;6.084;2023-02-11T00:26:24;101394.59;;;5.39;92.67
9189;BME280;34313;50.780;6.084;2023-02-11T00:28:50;101391.13;;;5.32;93.63
9189;BME280;34313;50.780;6.084;2023-02-11T00:31:17;101398.13;;;5.27;94.28
9189;BME280;34313;50.780;6.084;2023-02-11T00:33:43;101384.22;;;5.22;94.62
9189;BME280;34313;50.780;6.084;2023-02-11T00:36:12;101394.69;;;5.22;94.71
9189;BME280;34313;50.780;6.084;2023-02-11T00:38:38;101394.69;;;5.19;95.46
9189;BME280;34313;50.780;6.084;2023-02-11T00:41:04;101381.69;;;5.08;95.78
9189;BME280;34313;50.780;6.084;2023-02-11T00:43:29;101373.84;;;5.11;95.74
9189;BME280;34313;50.780;6.084;2023-02-11T00:45:54;101354.69;;;5.09;96.14
9189;BME280;34313;50.780;6.084;2023-02-11T00:48:20;101369.53;;;5.07;97.01
9189;BME280;34313;50.780;6.084;2023-02-11T00:50:45;101363.44;;;5.00;97.43
9189;BME280;34313;50.780;6.084;2023-02-11T00:53:10;101354.75;;;5.00;97.40
9189;BME280;34313;50.780;6.084;2023-02-11T00:55:36;101338.22;;;4.95;98.26
9189;BME280;34313;50.780;6.084;2023-02-11T00:58:02;101346.94;;;4.90;98.61
9189;BME280;34313;50.780;6.084;2023-02-11T01:00:28;101358.28;;;4.85;99.24
9189;BME280;34313;50.780;6.084;2023-02-11T01:02:53;101365.22;;;4.89;99.63
9189;BME280;34313;50.780;6.084;2023-02-11T01:05:19;101357.38;;;4.90;99.27
9189;BME280;34313;50.780;6.084;2023-02-11T01:07:45;101347.81;;;4.91;99.64
9189;BME280;34313;50.780;6.084;2023-02-11T01:10:11;101346.94;;;4.93;99.44
9189;BME280;34313;50.780;6.084;2023-02-11T01:12:37;101351.31;;;4.85;100.00
9189;BME280;34313;50.780;6.084;2023-02-11T01:15:03;101356.53;;;4.90;99.86
9189;BME280;34313;50.780;6.084;2023-02-11T01:17:29;101348.69;;;4.87;100.00
9189;BME280;34313;50.780;6.084;2023-02-11T01:19:54;101356.53;;;4.87;99.91
9189;BME280;34313;50.780;6.084;2023-02-11T01:22:19;101352.22;;;4.84;100.00
9189;BME280;34313;50.780;6.084;2023-02-11T01:24:45;101366.13;;;4.83;99.90
9189;BME280;34313;50.780;6.084;2023-02-11T01:27:10;101373.13;;;4.84;100.00
9189;BME280;34313;50.780;6.084;2023-02-11T01:29:35;101368.75;;;4.86;99.73
9189;BME280;34313;50.780;6.084;2023-02-11T01:32:01;101377.44;;;4.87;99.67
9189;BME280;34313;50.780;6.084;2023-02-11T01:34:27;101381.81;;;4.88;99.61
9189;BME280;34313;50.780;6.084;2023-02-11T01:36:57;101381.81;;;4.86;99.71
9189;BME280;34313;50.780;6.084;2023-02-11T01:39:23;101396.63;;;4.87;99.22
9189;BME280;34313;50.780;6.084;2023-02-11T01:41:48;101392.22;;;4.92;99.34
9189;BME280;34313;50.780;6.084;2023-02-11T01:44:42;101391.34;;;4.92;99.40
9189;BME280;34313;50.780;6.084;2023-02-11T01:47:07;101393.00;;;5.10;98.56
9189;BME280;34313;50.780;6.084;2023-02-11T01:49:45;101398.22;;;5.13;98.15
9189;BME280;34313;50.780;6.084;2023-02-11T01:52:22;101397.28;;;5.23;97.26
9189;BME280;34313;50.780;6.084;2023-02-11T01:54:53;101381.59;;;5.25;96.92
9189;BME280;34313;50.780;6.084;2023-02-11T01:57:41;101383.28;;;5.37;96.15
9189;BME280;34313;50.780;6.084;2023-02-11T02:00:29;101385.00;;;5.38;96.02
9189;BME280;34313;50.780;6.084;2023-02-11T02:03:11;101380.59;;;5.43;95.61
9189;BME280;34313;50.780;6.084;2023-02-11T02:05:53;101380.59;;;5.44;95.62
9189;BME280;34313;50.780;6.084;2023-02-11T02:08:31;101362.28;;;5.46;95.03
9189;BME280;34313;50.780;6.084;2023-02-11T02:10:59;101376.19;;;5.51;95.07
9189;BME280;34313;50.780;6.084;2023-02-11T02:13:27;101371.81;;;5.52;94.87
9189;BME280;34313;50.780;6.084;2023-02-11T02:15:56;101389.22;;;5.59;94.51
9189;BME280;34313;50.780;6.084;2023-02-11T02:23:51;101390.94;;;5.63;94.21
9189;BME280;34313;50.780;6.084;2023-02-11T02:34:43;101383.03;;;5.71;94.03
9189;BME280;34313;50.780;6.084;2023-02-11T02:37:35;101375.13;;;5.77;93.87
9189;BME280;34313;50.780;6.084;2023-02-11T02:40:07;101379.50;;;5.75;94.18
9189;BME280;34313;50.780;6.084;2023-02-11T02:42:35;101378.63;;;5.77;93.75
9189;BME280;34313;50.780;6.084;2023-02-11T02:45:02;101385.56;;;5.80;93.79
9189;BME280;34313;50.780;6.084;2023-02-11T02:47:28;101396.91;;;5.79;93.78
9189;BME280;34313;50.780;6.084;2023-02-11T02:49:53;101393.41;;;5.81;94.10
9189;BME280;34313;50.780;6.084;2023-02-11T02:55:32;101386.44;;;5.79;94.60
9189;BME280;34313;50.780;6.084;2023-02-11T03:03:58;101383.03;;;5.71;94.80
9189;BME280;34313;50.780;6.084;2023-02-11T03:11:28;101366.50;;;5.61;96.17
9189;BME280;34313;50.780;6.084;2023-02-11T03:13:54;101359.56;;;5.58;96.63
9189;BME280;34313;50.780;6.084;2023-02-11T03:16:24;101341.34;;;5.47;96.84
9189;BME280;34313;50.780;6.084;2023-02-11T03:18:56;101350.03;;;5.54;97.12
9189;BME280;34313;50.780;6.084;2023-02-11T03:21:25;101339.59;;;5.46;97.88
9189;BME280;34313;50.780;6.084;2023-02-11T03:23:53;101339.59;;;5.51;97.68
9189;BME280;34313;50.780;6.084;2023-02-11T03:26:34;101344.75;;;5.57;97.82
9189;BME280;34313;50.780;6.084;2023-02-11T03:31:40;101332.56;;;5.56;98.05
9189;BME280;34313;50.780;6.084;2023-02-11T03:34:15;101327.34;;;5.55;98.56
9189;BME280;34313;50.780;6.084;2023-02-11T03:36:50;101341.25;;;5.63;98.48
9189;BME280;34313;50.780;6.084;2023-02-11T03:39:22;101344.69;;;5.66;98.16
9189;BME280;34313;50.780;6.084;2023-02-11T03:41:50;101338.56;;;5.69;98.35
9189;BME280;34313;50.780;6.084;2023-02-11T03:44:18;101338.56;;;5.66;98.19
9189;BME280;34313;50.780;6.084;2023-02-11T03:46:49;101354.22;;;5.72;98.11
9189;BME280;34313;50.780;6.084;2023-02-11T03:49:17;101358.53;;;5.78;98.52
9189;BME280;34313;50.780;6.084;2023-02-11T03:51:45;101356.84;;;5.74;98.24
9189;BME280;34313;50.780;6.084;2023-02-11T03:54:20;101349.84;;;5.77;98.15
9189;BME280;34313;50.780;6.084;2023-02-11T03:56:52;101353.31;;;5.76;98.52
9189;BME280;34313;50.780;6.084;2023-02-11T03:59:17;101347.22;;;5.77;nan
9189;BME280;34313;50.780;6.084;2023-02-11T04:01:43;101347.16;;;5.82;98.62
9189;BME280;34313;50.780;6.084;2023-02-11T04:04:08;101335.78;;;5.87;98.51
9189;BME280;34313;50.780;6.084;2023-02-11T04:06:34;101331.41;;;5.88;98.34
9189;BME280;34313;50.780;6.084;2023-02-11T04:08:59;101332.28;;;5.85;98.26
9189;BME280;34313;50.780;6.084;2023-02-11T04:11:24;101334.94;;;5.84;98.70
9189;BME280;34313;50.780;6.084;2023-02-11T04:13:50;101321.03;;;5.80;99.19
9189;BME280;34313;50.780;6.084;2023-02-11T04:16:15;101315.84;;;5.73;99.01
9189;BME280;34313;50.780;6.084;2023-02-11T04:18:40;101318.47;;;5.69;99.43
9189;BME280;34313;50.780;6.084;2023-02-11T04:21:06;101315.00;;;5.69;99.72
9189;BME280;34313;50.780;6.084;2023-02-11T04:23:31;101331.53;;;5.76;99.50
9189;BME280;34313;50.780;6.084;2023-02-11T04:25:57;101342.00;;;5.74;99.60
9189;BME280;34313;50.780;6.084;2023-02-11T04:28:22;101330.69;;;5.72;99.69
9189;BME280;34313;50.780;6.084;2023-02-11T04:30:49;101328.09;;;5.69;99.69
9189;BME280;34313;50.780;6.084;2023-02-11T04:33:15;101329.84;;;5.72;100.00
9189;BME280;34313;50.780;6.084;2023-02-11T04:35:41;101329.78;;;5.75;100.00
9189;BME280;34313;50.780;6.084;2023-02-11T04:38:06;101321.09;;;5.73;100.00
9189;BME280;34313;50.780;6.084;2023-02-11T04:40:31;101314.97;;;5.77;100.00
9189;BME280;34313;50.780;6.084;2023-02-11T04:42:57;101308.00;;;5.74;100.00
9189;BME280;34313;50.780;6.084;2023-02-11T04:45:22;101314.97;;;5.75;100.00
9189;BME280;34313;50.780;6.084;2023-02-11T04:47:48;101312.31;;;5.78;100.00
9189;BME280;34313;50.780;6.084;2023-02-11T04:50:13;101313.19;;;5.79;100.00
9189;BME280;34313;50.780;6.084;2023-02-11T04:52:38;101314.09;;;5.75;100.00
9189;BME280;34313;50.780;6.084;2023-02-11T04:55:04;101304.53;;;5.71;100.00
9189;BME280;34313;50.780;6.084;2023-02-11T04:57:29;101310.59;;;5.74;100.00
9189;BME280;34313;50.780;6.084;2023-02-11T04:59:55;101312.34;;;5.77;100.00
9189;BME280;34313;50.780;6.084;2023-02-11T05:02:20;101305.47;;;5.66;100.00
9189;BME280;34313;50.780;6.084;2023-02-11T05:04:45;101314.97;;;5.74;100.00
9189;BME280;34313;50.780;6.084;2023-02-11T05:07:11;101315.00;;;5.72;100.00
9189;BME280;34313;50.780;6.084;2023-02-11T05:09:36;101312.41;;;5.67;100.00
9189;BME280;34313;50.780;6.084;2023-02-11T05:12:01;101315.03;;;5.66;100.00
9189;BME280;34313;50.780;6.084;2023-02-11T05:14:27;101312.41;;;5.67;100.00
9189;BME280;34313;50.780;6.084;2023-02-11T05:16:52;101310.63;;;5.73;100.00
9189;BME280;34313;50.780;6.084;2023-02-11T05:19:17;101308.94;;;5.67;100.00
9189;BME280;34313;50.780;6.084;2023-02-11T05:21:43;101315.91;;;5.68;100.00
9189;BME280;34313;50.780;6.084;2023-02-11T05:24:08;101313.25;;;5.69;100.00
9189;BME280;34313;50.780;6.084;2023-02-11T05:26:33;101301.09;;;5.67;100.00
9189;BME280;34313;50.780;6.084;2023-02-11T05:28:59;101293.22;;;5.67;100.00
9189;BME280;34313;50.780;6.084;2023-02-11T05:31:24;101288.84;;;5.69;100.00
9189;BME280;34313;50.780;6.084;2023-02-11T05:33:50;101293.22;;;5.68;100.00
9189;BME280;34313;50.780;6.084;2023-02-11T05:36:15;101304.50;;;5.74;100.00
9189;BME280;34313;50.780;6.084;2023-02-11T05:38:41;101281.00;;;5.69;100.00
9189;BME280;34313;50.780;6.084;2023-02-11T05:41:08;101286.19;;;5.74;100.00
9189;BME280;34313;50.780;6.084;2023-02-11T05:43:33;101285.34;;;5.72;100.00
9189;BME280;34313;50.780;6.084;2023-02-11T05:45:59;101273.97;;;5.74;100.00
9189;BME280;34313;50.780;6.084;2023-02-11T05:48:25;101283.56;;;5.77;100.00
9189;BME280;34313;50.780;6.084;2023-02-11T05:50:50;101291.44;;;5.75;100.00
9189;BME280;34313;50.780;6.084;2023-02-11T05:53:15;101287.03;;;5.77;100.00
9189;BME280;34313;50.780;6.084;2023-02-11T05:55:41;101294.88;;;5.80;100.00
9189;BME280;34313;50.780;6.084;2023-02-11T05:58:06;101283.47;;;5.86;100.00
9189;BME280;34313;50.780;6.084;2023-02-11T06:00:33;101280.88;;;5.80;100.00
9189;BME280;34313;50.780;6.084;2023-02-11T06:02:58;101279.19;;;5.77;100.00
9189;BME280;34313;50.780;6.084;2023-02-11T06:05:24;101280.03;;;5.81;100.00
9189;BME280;34313;50.780;6.084;2023-02-11T06:07:49;101280.88;;;5.83;100.00
9189;BME280;34313;50.780;6.084;2023-02-11T06:10:15;101284.34;;;5.83;100.00
9189;BME280;34313;50.780;6.084;2023-02-11T06:12:40;101289.56;;;5.86;100.00
9189;BME280;34313;50.780;6.084;2023-02-11T06:15:06;101293.03;;;5.85;100.00
9189;BME280;34313;50.780;6.084;2023-02-11T06:17:31;101292.16;;;5.88;100.00
9189;BME280;34313;50.780;6.084;2023-02-11T06:19:59;101291.22;;;5.92;100.00
9189;BME280;34313;50.780;6.084;2023-02-11T06:22:25;101290.38;;;5.93;100.00
9189;BME280;34313;50.780;6.084;2023-02-11T06:24:51;101283.38;;;5.92;100.00
9189;BME280;34313;50.780;6.084;2023-02-11T06:27:16;101292.97;;;5.93;100.00
9189;BME280;34313;50.780;6.084;2023-02-11T06:29:43;101286.84;;;5.97;100.00
9189;BME280;34313;50.780;6.084;2023-02-11T06:32:09;101285.97;;;6.01;100.00
9189;BME280;34313;50.780;6.084;2023-02-11T06:34:34;101285.06;;;5.99;100.00
9189;BME280;34313;50.780;6.084;2023-02-11T06:37:00;101291.97;;;6.06;100.00
9189;BME280;34313;50.780;6.084;2023-02-11T06:39:25;101293.81;;;6.00;100.00
9189;BME280;34313;50.780;6.084;2023-02-11T06:41:50;101297.28;;;6.00;100.00
9189;BME280;34313;50.780;6.084;2023-02-11T06:44:16;101311.19;;;6.07;100.00
9189;BME280;34313;50.780;6.084;2023-02-11T06:46:41;101312.91;;;6.10;100.00
9189;BME280;34313;50.780;6.084;2023-02-11T06:49:06;101300.72;;;6.07;100.00
9189;BME280;34313;50.780;6.084;2023-02-11T06:51:32;101306.81;;;6.08;100.00
9189;BME280;34313;50.780;6.084;2023-02-11T06:53:57;101307.66;;;6.08;100.00
9189;BME280;34313;50.780;6.084;2023-02-11T06:56:23;101305.88;;;6.13;100.00
9189;BME280;34313;50.780;6.084;2023-02-11T06:58:53;101303.31;;;6.10;100.00
9189;BME280;34313;50.780;6.084;2023-02-11T07:01:23;101314.69;;;6.04;100.00
9189;BME280;34313;50.780;6.084;2023-02-11T07:03:49;101326.81;;;6.12;100.00
9189;BME280;34313;50.780;6.084;2023-02-11T07:06:18;101329.44;;;6.13;100.00
9189;BME280;34313;50.780;6.084;2023-02-11T07:08:44;101332.06;;;6.13;100.00
9189;BME280;34313;50.780;6.084;2023-02-11T07:11:18;101326.88;;;6.10;100.00
9189;BME280;34313;50.780;6.084;2023-02-11T07:13:45;101327.72;;;6.11;100.00
9189;BME280;34313;50.780;6.084;2023-02-11T07:16:13;101328.59;;;6.10;100.00
9189;BME280;34313;50.780;6.084;2023-02-11T07:18:39;101325.09;;;6.14;100.00
9189;BME280;34313;50.780;6.084;2023-02-11T07:21:06;101331.19;;;6.13;100.00
9189;BME280;34313;50.780;6.084;2023-02-11T07:23:32;101332.91;;;6.15;100.00
9189;BME280;34313;50.780;6.084;2023-02-11T07:26:01;101332.13;;;6.09;100.00
9189;BME280;34313;50.780;6.084;2023-02-11T07:28:27;101328.63;;;6.06;100.00
9189;BME280;34313;50.780;6.084;2023-02-11T07:30:52;101340.81;;;6.11;100.00
9189;BME280;34313;50.780;6.084;2023-02-11T07:33:17;101349.50;;;6.14;100.00
9189;BME280;34313;50.780;6.084;2023-02-11T07:35:43;101356.44;;;6.20;100.00
9189;BME280;34313;50.780;6.084;2023-02-11T07:38:08;101343.34;;;6.17;100.00
9189;BME280;34313;50.780;6.084;2023-02-11T07:40:33;101336.38;;;6.19;100.00
9189;BME280;34313;50.780;6.084;2023-02-11T07:42:59;101342.38;;;6.27;100.00
9189;BME280;34313;50.780;6.084;2023-02-11T07:45:25;101336.28;;;6.28;100.00
9189;BME280;34313;50.780;6.084;2023-02-11T07:47:50;101335.38;;;6.29;100.00
9189;BME280;34313;50.780;6.084;2023-02-11T07:50:16;101337.94;;;6.35;100.00
9189;BME280;34313;50.780;6.084;2023-02-11T07:52:41;101338.78;;;6.37;100.00
9189;BME280;34313;50.780;6.084;2023-02-11T07:55:07;101353.59;;;6.40;100.00
9189;BME280;34313;50.780;6.084;2023-02-11T07:57:34;101346.66;;;6.36;100.00
9189;BME280;34313;50.780;6.084;2023-02-11T07:59:59;101358.03;;;6.33;100.00
9189;BME280;34313;50.780;6.084;2023-02-11T08:02:24;101351.84;;;6.40;100.00
9189;BME280;34313;50.780;6.084;2023-02-11T08:04:50;101354.44;;;6.43;100.00
9189;BME280;34313;50.780;6.084;2023-02-11T08:07:17;101351.72;;;6.51;100.00
9189;BME280;34313;50.780;6.084;2023-02-11T08:09:43;101355.25;;;6.49;100.00
9189;BME280;34313;50.780;6.084;2023-02-11T08:12:08;101360.41;;;6.55;100.00
9189;BME280;34313;50.780;6.084;2023-02-11T08:14:34;101355.97;;;6.61;100.00
9189;BME280;34313;50.780;6.084;2023-02-11T08:16:59;101369.88;;;6.68;100.00
9189;BME280;34313;50.780;6.084;2023-02-11T08:19:25;101368.91;;;6.75;100.00
9189;BME280;34313;50.780;6.084;2023-02-11T08:21:54;101356.66;;;6.74;100.00
9189;BME280;34313;50.780;6.084;2023-02-11T08:24:21;101363.66;;;6.77;100.00
9189;BME280;34313;50.780;6.084;2023-02-11T08:26:46;101354.97;;;6.70;100.00
9189;BME280;34313;50.780;6.084;2023-02-11T08:29:13;101366.34;;;6.69;100.00
9189;BME280;34313;50.780;6.084;2023-02-11T08:31:41;101378.59;;;6.67;100.00
9189;BME280;34313;50.780;6.084;2023-02-11T08:34:06;101382.06;;;6.69;100.00
9189;BME280;34313;50.780;6.084;2023-02-11T08:36:34;101395.09;;;6.75;100.00
9189;BME280;34313;50.780;6.084;2023-02-11T08:39:02;101387.22;;;6.78;100.00
9189;BME280;34313;50.780;6.084;2023-02-11T08:41:29;101402.84;;;6.86;100.00
9189;BME280;34313;50.780;6.084;2023-02-11T08:43:55;101395.81;;;6.87;100.00
9189;BME280;34313;50.780;6.084;2023-02-11T08:46:20;101408.91;;;6.90;100.00
9189;BME280;34313;50.780;6.084;2023-02-11T08:48:46;101396.69;;;6.87;100.00
9189;BME280;34313;50.780;6.084;2023-02-11T08:51:17;101395.81;;;6.87;100.00
9189;BME280;34313;50.780;6.084;2023-02-11T08:53:43;101401.06;;;6.87;100.00
9189;BME280;34313;50.780;6.084;2023-02-11T08:56:10;101403.75;;;6.82;100.00
9189;BME280;34313;50.780;6.084;2023-02-11T08:58:36;101408.84;;;6.94;100.00
9189;BME280;34313;50.780;6.084;2023-02-11T09:01:08;101407.16;;;6.87;100.00
9189;BME280;34313;50.780;6.084;2023-02-11T09:03:34;101403.63;;;6.93;100.00
9189;BME280;34313;50.780;6.084;2023-02-11T09:06:04;101395.91;;;6.82;100.00
9189;BME280;34313;50.780;6.084;2023-02-11T09:08:30;101409.72;;;6.93;100.00
9189;BME280;34313;50.780;6.084;2023-02-11T09:10:56;101413.22;;;6.92;100.00
9189;BME280;34313;50.780;6.084;2023-02-11T09:13:21;101408.81;;;6.96;100.00
9189;BME280;34313;50.780;6.084;2023-02-11T09:15:46;101410.56;;;6.97;100.00
9189;BME280;34313;50.780;6.084;2023-02-11T09:18:12;101411.41;;;6.99;100.00
9189;BME280;34313;50.780;6.084;2023-02-11T09:20:38;101411.41;;;6.99;100.00
9189;BME280;34313;50.780;6.084;2023-02-11T09:23:03;101414.13;;;6.93;100.00
9189;BME280;34313;50.780;6.084;2023-02-11T09:25:28;101405.34;;;6.92;100.00
9189;BME280;34313;50.780;6.084;2023-02-11T09:27:54;101415.78;;;6.98;100.00
9189;BME280;34313;50.780;6.084;2023-02-11T09:30:19;101414.97;;;6.92;100.00
9189;BME280;34313;50.780;6.084;2023-02-11T09:32:45;101424.50;;;7.00;100.00
9189;BME280;34313;50.780;6.084;2023-02-11T09:35:10;101416.75;;;6.90;100.00
9189;BME280;34313;50.780;6.084;2023-02-11T09:37:36;101421.03;;;6.97;100.00
9189;BME280;34313;50.780;6.084;2023-02-11T09:40:01;101415.78;;;7.00;100.00
9189;BME280;34313;50.780;6.084;2023-02-11T09:42:42;101435.13;;;6.90;100.00
9189;BME280;34313;50.780;6.084;2023-02-11T09:45:24;101432.34;;;7.02;100.00
9189;BME280;34313;50.780;6.084;2023-02-11T09:47:56;101430.53;;;7.06;100.00
9189;BME280;34313;50.780;6.084;2023-02-11T09:50:39;101424.28;;;7.16;100.00
9189;BME280;34313;50.780;6.084;2023-02-11T09:53:17;101427.72;;;7.23;100.00
9189;BME280;34313;50.780;6.084;2023-02-11T09:55:46;101423.31;;;7.25;100.00
9189;BME280;34313;50.780;6.084;2023-02-11T09:58:19;101431.03;;;7.34;100.00
9189;BME280;34313;50.780;6.084;2023-02-11T10:06:39;101432.47;;;7.56;100.00
9189;BME280;34313;50.780;6.084;2023-02-11T10:09:27;101443.72;;;7.66;100.00
9189;BME280;34313;50.780;6.084;2023-02-11T10:23:22;101435.69;;;7.75;100.00
9189;BME280;34313;50.780;6.084;2023-02-11T10:25:51;101444.38;;;7.79;100.00
9189;BME280;34313;50.780;6.084;2023-02-11T10:28:39;101449.66;;;7.76;100.00
9189;BME280;34313;50.780;6.084;2023-02-11T10:31:09;101449.66;;;7.78;100.00
9189;BME280;34313;50.780;6.084;2023-02-11T10:33:43;101456.56;;;7.83;100.00
9189;BME280;34313;50.780;6.084;2023-02-11T10:36:11;101438.94;;;7.90;100.00
9189;BME280;34313;50.780;6.084;2023-02-11T10:38:36;101452.13;;;7.87;100.00
9189;BME280;34313;50.780;6.084;2023-02-11T10:41:03;101461.59;;;7.97;100.00
9189;BME280;34313;50.780;6.084;2023-02-11T10:43:29;101455.56;;;7.90;100.00
9189;BME280;34313;50.780;6.084;2023-02-11T10:45:56;101450.25;;;7.95;100.00
9189;BME280;34313;50.780;6.084;2023-02-11T10:48:49;101448.47;;;7.97;100.00
9189;BME280;34313;50.780;6.084;2023-02-11T10:51:18;101462.53;;;7.94;100.00
9189;BME280;34313;50.780;6.084;2023-02-11T10:53:46;101466.84;;;7.97;100.00
9189;BME280;34313;50.780;6.084;2023-02-11T10:56:22;101463.28;;;8.01;100.00
9189;BME280;34313;50.780;6.084;2023-02-11T10:59:27;101460.81;;;7.90;100.00
9189;BME280;34313;50.780;6.084;2023-02-11T11:06:56;101456.34;;;7.95;100.00
9189;BME280;34313;50.780;6.084;2023-02-11T11:09:29;101455.47;;;7.97;100.00
9189;BME280;34313;50.780;6.084;2023-02-11T11:11:55;101448.56;;;7.92;100.00
9189;BME280;34313;50.780;6.084;2023-02-11T11:14:22;101461.47;;;8.05;100.00
9189;BME280;34313;50.780;6.084;2023-02-11T11:16:53;101465.75;;;8.12;100.00
9189;BME280;34313;50.780;6.084;2023-02-11T11:19:21;101458.84;;;8.05;100.00
9189;BME280;34313;50.780;6.084;2023-02-11T11:21:49;101456.25;;;8.03;100.00
9189;BME280;34313;50.780;6.084;2023-02-11T11:26:49;101464.81;;;8.13;100.00
9189;BME280;34313;50.780;6.084;2023-02-11T11:29:18;101461.41;;;8.08;100.00
9189;BME280;34313;50.780;6.084;2023-02-11T11:31:57;101464.94;;;8.07;100.00
9189;BME280;34313;50.780;6.084;2023-02-11T11:34:36;101463.16;;;8.09;100.00
9189;BME280;34313;50.780;6.084;2023-02-11T11:37:17;101457.03;;;8.08;100.00
9189;BME280;34313;50.780;6.084;2023-02-11T11:42:39;101451.84;;;8.05;100.00
9189;BME280;34313;50.780;6.084;2023-02-11T11:56:02;101452.66;;;8.09;100.00
9189;BME280;34313;50.780;6.084;2023-02-11T11:58:30;101452.78;;;8.01;100.00
9189;BME280;34313;50.780;6.084;2023-02-11T12:01:30;101449.22;;;8.05;100.00
9189;BME280;34313;50.780;6.084;2023-02-11T12:15:37;101439.56;;;8.06;100.00
9189;BME280;34313;50.780;6.084;2023-02-11T12:18:18;101450.03;;;8.07;100.00
9189;BME280;34313;50.780;6.084;2023-02-11T12:29:04;101442.78;;;8.23;100.00
9189;BME280;34313;50.780;6.084;2023-02-11T12:35:21;101450.59;;;8.26;100.00
9189;BME280;34313;50.780;6.084;2023-02-11T12:40:15;101457.38;;;8.40;100.00
9189;BME280;34313;50.780;6.084;2023-02-11T12:45:48;101452.16;;;8.38;100.00
9189;BME280;34313;50.780;6.084;2023-02-11T12:48:28;101457.56;;;8.29;100.00
9189;BME280;34313;50.780;6.084;2023-02-11T12:51:39;101455.06;;;8.21;100.00
9189;BME280;34313;50.780;6.084;2023-02-11T12:56:44;101459.59;;;8.11;100.00
9189;BME280;34313;50.780;6.084;2023-02-11T13:03:04;101456.88;;;8.18;100.00
9189;BME280;34313;50.780;6.084;2023-02-11T13:05:11;101448.03;;;8.22;100.00
9189;BME280;34313;50.780;6.084;2023-02-11T13:07:44;101453.34;;;8.19;100.00
9189;BME280;34313;50.780;6.084;2023-02-11T13:12:42;101437.75;;;8.09;100.00
9189;BME280;34313;50.780;6.084;2023-02-11T13:15:29;101443.03;;;8.08;100.00
9189;BME280;34313;50.780;6.084;2023-02-11T13:18:16;101445.59;;;8.11;100.00
9189;BME280;34313;50.780;6.084;2023-02-11T13:23:30;101449.03;;;8.14;100.00
9189;BME280;34313;50.780;6.084;2023-02-11T13:26:21;101451.59;;;8.19;100.00
9189;BME280;34313;50.780;6.084;2023-02-11T13:28:56;101451.59;;;8.19;100.00
9189;BME280;34313;50.780;6.084;2023-02-11T13:31:25;101439.38;;;8.17;100.00
9189;BME280;34313;50.780;6.084;2023-02-11T13:33:52;101443.69;;;8.22;100.00
9189;BME280;34313;50.780;6.084;2023-02-11T13:36:20;101431.34;;;8.26;100.00
9189;BME280;34313;50.780;6.084;2023-02-11T13:38:58;101437.44;;;8.28;100.00
9189;BME280;34313;50.780;6.084;2023-02-11T13:41:39;101428.03;;;8.14;100.00
9189;BME280;34313;50.780;6.084;2023-02-11T13:49:19;101440.22;;;8.19;100.00
9189;BME280;34313;50.780;6.084;2023-02-11T13:51:45;101432.31;;;8.20;100.00
9189;BME280;34313;50.780;6.084;2023-02-11T13:54:21;101427.78;;;8.28;100.00
9189;BME280;34313;50.780;6.084;2023-02-11T13:57:41;101428.66;;;8.29;100.00
9189;BME280;34313;50.780;6.084;2023-02-11T14:19:36;101428.97;;;8.62;100.00
9189;BME280;34313;50.780;6.084;2023-02-11T14:22:12;101436.81;;;8.63;100.00
9189;BME280;34313;50.780;6.084;2023-02-11T14:25:02;101438.59;;;8.63;100.00
9189;BME280;34313;50.780;6.084;2023-02-11T14:27:36;101438.47;;;8.67;100.00
9189;BME280;34313;50.780;6.084;2023-02-11T14:35:14;101417.28;;;8.77;100.00
9189;BME280;34313;50.780;6.084;2023-02-11T14:40:40;101425.75;;;8.91;100.00
9189;BME280;34313;50.780;6.084;2023-02-11T14:43:28;101430.16;;;8.91;100.00
9189;BME280;34313;50.780;6.084;2023-02-11T14:45:56;101436.47;;;8.82;100.00
9189;BME280;34313;50.780;6.084;2023-02-11T14:48:33;101439.25;;;8.73;100.00
9189;BME280;34313;50.780;6.084;2023-02-11T14:53:43;101443.75;;;8.66;100.00
9189;BME280;34313;50.780;6.084;2023-02-11T14:56:21;101442.94;;;8.64;100.00
9189;BME280;34313;50.780;6.084;2023-02-11T14:58:49;101430.69;;;8.64;100.00
9189;BME280;34313;50.780;6.084;2023-02-11T15:01:49;101445.50;;;8.68;100.00
9189;BME280;34313;50.780;6.084;2023-02-11T15:04:31;101450.75;;;8.68;100.00
9189;BME280;34313;50.780;6.084;2023-02-11T15:07:01;101450.81;;;8.64;100.00
9189;BME280;34313;50.780;6.084;2023-02-11T15:09:40;101449.09;;;8.64;100.00
9189;BME280;34313;50.780;6.084;2023-02-11T15:12:16;101439.47;;;8.62;100.00
9189;BME280;34313;50.780;6.084;2023-02-11T15:14:46;101444.66;;;8.66;100.00
9189;BME280;34313;50.780;6.084;2023-02-11T15:17:15;101444.75;;;8.60;100.00
9189;BME280;34313;50.780;6.084;2023-02-11T15:19:46;101449.38;;;8.49;100.00
9189;BME280;34313;50.780;6.084;2023-02-11T15:22:24;101450.16;;;8.54;100.00
9189;BME280;34313;50.780;6.084;2023-02-11T15:25:16;101456.28;;;8.53;100.00
9189;BME280;34313;50.780;6.084;2023-02-11T15:27:51;101453.53;;;8.61;100.00
9189;BME280;34313;50.780;6.084;2023-02-11T15:32:45;101449.38;;;8.49;100.00
9189;BME280;34313;50.780;6.084;2023-02-11T15:35:10;101442.31;;;8.51;100.00
9189;BME280;34313;50.780;6.084;2023-02-11T15:37:38;101437.94;;;8.50;100.00
9189;BME280;34313;50.780;6.084;2023-02-11T15:40:10;101444.06;;;8.52;100.00
9189;BME280;34313;50.780;6.084;2023-02-11T15:42:36;101428.44;;;8.43;100.00